createdAt,value
2018-06-23T00:01:22.413Z,7.33
2018-06-23T00:03:50.166Z,6.80
2018-06-23T00:06:17.875Z,6.30
2018-06-23T00:08:45.585Z,7.40
2018-06-23T00:11:13.314Z,7.47
2018-06-23T00:13:41.036Z,8.70
2018-06-23T00:16:08.841Z,7.17
2018-06-23T00:18:36.538Z,9.73
2018-06-23T00:21:04.338Z,7.60
2018-06-23T00:23:32.080Z,8.30
2018-06-23T00:26:05.423Z,7.50
2018-06-23T00:28:33.175Z,6.77
2018-06-23T00:31:00.891Z,11.47
2018-06-23T00:33:28.581Z,6.20
2018-06-23T00:35:56.368Z,7.03
2018-06-23T00:38:24.084Z,7.37
2018-06-23T00:40:51.840Z,7.63
2018-06-23T00:43:19.650Z,8.17
2018-06-23T00:45:47.342Z,8.43
2018-06-23T00:48:15.054Z,6.35
2018-06-23T00:50:42.817Z,8.60
2018-06-23T00:53:10.596Z,7.10
2018-06-23T00:55:38.279Z,9.25
2018-06-23T00:58:06.057Z,6.23
2018-06-23T01:00:33.829Z,9.33
2018-06-23T01:03:01.593Z,8.45
2018-06-23T01:05:29.275Z,7.17
2018-06-23T01:07:57.055Z,7.97
2018-06-23T01:10:24.827Z,9.15
2018-06-23T01:12:52.620Z,7.25
2018-06-23T01:15:20.349Z,6.50
2018-06-23T01:17:48.093Z,10.25
2018-06-23T01:20:15.757Z,9.18
2018-06-23T01:22:43.489Z,7.35
2018-06-23T01:25:11.320Z,7.12
2018-06-23T01:27:38.992Z,9.75
2018-06-23T01:30:06.957Z,7.23
2018-06-23T01:32:34.727Z,10.45
2018-06-23T01:35:02.838Z,10.95
2018-06-23T01:37:30.645Z,9.95
2018-06-23T01:39:58.366Z,9.78
2018-06-23T01:42:26.158Z,10.00
2018-06-23T01:44:53.894Z,11.07
2018-06-23T01:47:21.600Z,11.25
2018-06-23T01:49:49.321Z,8.53
2018-06-23T01:52:16.992Z,8.73
2018-06-23T01:54:44.813Z,9.30
2018-06-23T01:57:12.566Z,7.87
2018-06-23T01:59:40.254Z,8.45
2018-06-23T02:02:08.022Z,10.03
2018-06-23T02:04:35.833Z,9.47
2018-06-23T02:07:03.954Z,9.40
2018-06-23T02:09:31.672Z,10.15
2018-06-23T02:11:59.455Z,8.90
2018-06-23T02:14:32.807Z,9.90
2018-06-23T02:17:06.305Z,9.15
2018-06-23T02:19:39.600Z,9.50
2018-06-23T02:22:13.178Z,12.85
2018-06-23T02:24:46.374Z,9.03
2018-06-23T02:27:19.579Z,8.30
2018-06-23T02:29:53.105Z,9.40
2018-06-23T02:32:26.378Z,9.50
2018-06-23T02:34:59.928Z,9.93
2018-06-23T02:37:27.754Z,8.30
2018-06-23T02:39:55.531Z,9.15
2018-06-23T02:42:23.240Z,9.03
2018-06-23T02:44:51.011Z,13.78
2018-06-23T02:47:18.790Z,8.63
2018-06-23T02:49:46.478Z,12.18
2018-06-23T02:52:14.222Z,12.20
2018-06-23T02:54:42.021Z,10.00
2018-06-23T02:57:09.775Z,8.53
2018-06-23T02:59:37.528Z,8.83
2018-06-23T03:02:05.387Z,8.33
2018-06-23T03:04:33.147Z,8.98
2018-06-23T03:07:00.875Z,8.55
2018-06-23T03:09:28.625Z,7.30
2018-06-23T03:11:56.342Z,10.70
2018-06-23T03:14:24.090Z,11.10
2018-06-23T03:16:51.872Z,9.15
2018-06-23T03:19:19.692Z,10.98
2018-06-23T03:21:47.507Z,10.32
2018-06-23T03:24:15.269Z,11.97
2018-06-23T03:26:43.021Z,10.88
2018-06-23T03:29:10.749Z,11.12
2018-06-23T03:31:38.449Z,10.75
2018-06-23T03:34:06.262Z,12.50
2018-06-23T03:36:34.060Z,9.68
2018-06-23T03:39:01.939Z,14.15
2018-06-23T03:41:29.696Z,10.38
2018-06-23T03:43:57.410Z,10.40
2018-06-23T03:46:25.113Z,10.68
2018-06-23T03:48:53.289Z,13.15
2018-06-23T03:51:21.033Z,10.15
2018-06-23T03:53:48.771Z,9.20
2018-06-23T03:56:16.472Z,10.05
2018-06-23T03:58:44.195Z,9.67
2018-06-23T04:01:11.965Z,8.80
2018-06-23T04:03:39.795Z,7.17
2018-06-23T04:06:07.557Z,9.97
2018-06-23T04:08:35.457Z,8.93
2018-06-23T04:11:03.643Z,12.30
2018-06-23T04:13:31.666Z,10.43
2018-06-23T04:15:59.673Z,8.33
2018-06-23T04:18:27.601Z,10.53
2018-06-23T04:20:55.366Z,11.50
2018-06-23T04:23:23.104Z,11.00
2018-06-23T04:25:50.850Z,10.87
2018-06-23T04:28:18.549Z,10.27
2018-06-23T04:30:46.310Z,10.10
2018-06-23T04:33:14.075Z,8.27
2018-06-23T04:35:41.830Z,10.93
2018-06-23T04:38:09.545Z,9.50
2018-06-23T04:40:37.233Z,10.30
2018-06-23T04:43:05.229Z,9.60
2018-06-23T04:45:33.218Z,8.23
2018-06-23T04:48:00.934Z,9.23
2018-06-23T04:50:29.178Z,9.03
2018-06-23T04:52:56.902Z,9.40
2018-06-23T04:55:24.743Z,7.83
2018-06-23T04:57:52.480Z,8.07
2018-06-23T05:00:24.699Z,8.50
2018-06-23T05:02:53.099Z,7.57
2018-06-23T05:05:20.781Z,7.63
2018-06-23T05:07:48.465Z,13.47
2018-06-23T05:10:16.257Z,10.67
2018-06-23T05:12:43.976Z,7.10
2018-06-23T05:15:11.674Z,7.63
2018-06-23T05:17:39.402Z,7.53
2018-06-23T05:20:07.140Z,7.77
2018-06-23T05:22:34.863Z,8.90
2018-06-23T05:25:02.836Z,9.47
2018-06-23T05:27:30.516Z,8.80
2018-06-23T05:29:58.319Z,9.30
2018-06-23T05:32:26.038Z,6.70
2018-06-23T05:34:53.803Z,6.73
2018-06-23T05:37:21.682Z,8.00
2018-06-23T05:39:49.512Z,6.80
2018-06-23T05:42:17.399Z,8.17
2018-06-23T05:44:45.126Z,6.93
2018-06-23T05:47:12.847Z,9.00
2018-06-23T05:49:40.610Z,6.90
2018-06-23T05:52:08.343Z,6.27
2018-06-23T05:54:36.261Z,6.73
2018-06-23T05:57:04.361Z,7.97
2018-06-23T05:59:32.174Z,9.07
2018-06-23T06:01:59.897Z,5.67
2018-06-23T06:04:27.613Z,8.60
2018-06-23T06:06:55.477Z,6.50
2018-06-23T06:09:23.334Z,8.70
2018-06-23T06:11:51.140Z,7.23
2018-06-23T06:14:19.231Z,5.60
2018-06-23T06:17:54.087Z,7.33
2018-06-23T06:20:21.841Z,9.13
2018-06-23T06:22:49.568Z,6.40
2018-06-23T06:25:19.173Z,12.87
2018-06-23T06:27:46.996Z,8.10
2018-06-23T06:30:15.018Z,7.67
2018-06-23T06:32:42.762Z,8.13
2018-06-23T06:35:10.522Z,9.40
2018-06-23T06:37:38.350Z,7.00
2018-06-23T06:40:06.909Z,8.50
2018-06-23T06:42:34.674Z,8.47
2018-06-23T06:45:04.116Z,8.70
2018-06-23T06:47:31.863Z,7.50
2018-06-23T06:49:59.549Z,6.67
2018-06-23T06:52:27.376Z,8.00
2018-06-23T06:54:55.068Z,9.07
2018-06-23T06:57:22.866Z,11.47
2018-06-23T07:02:43.862Z,7.57
2018-06-23T07:05:11.658Z,6.50
2018-06-23T07:07:39.422Z,11.20
2018-06-23T07:10:07.257Z,11.33
2018-06-23T07:12:35.033Z,10.47
2018-06-23T07:15:04.506Z,11.00
2018-06-23T07:17:37.240Z,9.53
2018-06-23T07:20:04.925Z,12.50
2018-06-23T07:22:32.648Z,9.67
2018-06-23T07:25:21.374Z,8.07
2018-06-23T07:27:49.242Z,7.97
2018-06-23T07:30:16.936Z,8.13
2018-06-23T07:32:44.694Z,8.67
2018-06-23T07:35:12.641Z,8.60
2018-06-23T07:37:40.208Z,9.40
2018-06-23T07:40:07.968Z,9.57
2018-06-23T07:42:35.674Z,9.90
2018-06-23T07:45:03.915Z,17.63
2018-06-23T07:47:31.567Z,8.17
2018-06-23T07:50:04.853Z,8.00
2018-06-23T07:52:32.592Z,12.73
2018-06-23T07:55:02.246Z,8.90
2018-06-23T07:57:29.994Z,9.00
2018-06-23T07:59:57.770Z,7.43
2018-06-23T08:02:25.543Z,9.63
2018-06-23T08:04:53.298Z,7.77
2018-06-23T08:07:21.167Z,9.73
2018-06-23T08:09:48.917Z,7.90
2018-06-23T08:12:16.665Z,7.90
2018-06-23T08:14:44.508Z,7.83
2018-06-23T08:17:12.867Z,8.90
2018-06-23T08:19:43.015Z,7.73
2018-06-23T08:22:11.451Z,7.57
2018-06-23T08:24:40.763Z,8.10
2018-06-23T08:27:16.313Z,7.40
2018-06-23T08:29:44.548Z,8.10
2018-06-23T08:32:12.297Z,7.47
2018-06-23T08:34:40.049Z,10.30
2018-06-23T08:37:07.785Z,6.17
2018-06-23T08:39:35.517Z,8.20
2018-06-23T08:42:05.257Z,7.83
2018-06-23T08:44:33.077Z,11.17
2018-06-23T08:47:00.807Z,8.30
2018-06-23T08:49:28.530Z,12.00
2018-06-23T08:51:56.303Z,6.73
2018-06-23T08:54:24.092Z,7.77
2018-06-23T08:56:51.923Z,7.93
2018-06-23T08:59:19.629Z,7.33
2018-06-23T09:01:47.482Z,7.53
2018-06-23T09:04:15.209Z,6.80
2018-06-23T09:06:42.988Z,10.20
2018-06-23T09:09:11.031Z,9.60
2018-06-23T09:11:39.174Z,9.47
2018-06-23T09:14:07.111Z,5.57
2018-06-23T09:16:35.386Z,9.67
2018-06-23T09:19:03.540Z,8.13
2018-06-23T09:21:31.298Z,6.33
2018-06-23T09:23:59.029Z,7.33
2018-06-23T09:26:27.160Z,7.23
2018-06-23T09:28:54.897Z,7.67
2018-06-23T09:31:22.670Z,5.83
2018-06-23T09:33:50.510Z,7.63
2018-06-23T09:36:19.145Z,8.20
2018-06-23T09:38:46.974Z,11.47
2018-06-23T09:41:14.681Z,13.93
2018-06-23T09:43:42.424Z,9.87
2018-06-23T09:46:10.218Z,6.40
2018-06-23T09:48:37.966Z,6.80
2018-06-23T09:51:05.737Z,7.93
2018-06-23T09:53:33.535Z,5.70
2018-06-23T09:56:01.294Z,9.00
2018-06-23T09:58:29.007Z,5.30
2018-06-23T10:00:56.829Z,4.90
2018-06-23T10:03:24.567Z,6.77
2018-06-23T10:05:52.418Z,6.77
2018-06-23T10:08:20.123Z,5.60
2018-06-23T10:10:48.009Z,6.63
2018-06-23T10:13:16.275Z,6.80
2018-06-23T10:15:44.120Z,9.30
2018-06-23T10:18:11.853Z,7.13
2018-06-23T10:20:39.551Z,8.70
2018-06-23T10:23:07.328Z,5.07
2018-06-23T10:25:35.161Z,5.53
2018-06-23T10:28:03.150Z,7.87
2018-06-23T10:30:30.887Z,6.73
2018-06-23T10:32:58.690Z,4.17
2018-06-23T10:35:26.373Z,5.80
2018-06-23T10:37:54.333Z,5.50
2018-06-23T10:40:22.017Z,3.87
2018-06-23T10:42:49.787Z,7.70
2018-06-23T10:45:17.567Z,5.20
2018-06-23T10:47:45.245Z,5.63
2018-06-23T10:50:13.102Z,5.23
2018-06-23T10:52:40.834Z,4.57
2018-06-23T10:55:08.629Z,6.00
2018-06-23T10:57:36.528Z,6.30
2018-06-23T11:00:04.743Z,6.77
2018-06-23T11:02:32.505Z,4.80
2018-06-23T11:05:00.325Z,5.27
2018-06-23T11:07:27.974Z,5.60
2018-06-23T11:09:55.770Z,4.07
2018-06-23T11:12:23.496Z,4.57
2018-06-23T11:14:51.193Z,5.50
2018-06-23T11:17:18.973Z,5.63
2018-06-23T11:19:46.675Z,5.57
2018-06-23T11:22:14.433Z,5.00
2018-06-23T11:24:42.193Z,5.20
2018-06-23T11:27:09.883Z,9.20
2018-06-23T11:29:37.718Z,4.60
2018-06-23T11:32:05.550Z,3.87
2018-06-23T11:34:33.407Z,6.90
2018-06-23T11:37:01.409Z,5.73
2018-06-23T11:39:29.138Z,6.83
2018-06-23T11:41:56.877Z,6.43
2018-06-23T11:44:24.624Z,5.97
2018-06-23T11:46:52.475Z,5.27
2018-06-23T11:49:20.325Z,5.57
2018-06-23T11:51:48.130Z,4.20
2018-06-23T11:54:15.875Z,4.47
2018-06-23T11:56:43.694Z,9.17
2018-06-23T11:59:11.422Z,6.77
2018-06-23T12:01:39.234Z,5.50
2018-06-23T12:04:06.988Z,5.10
2018-06-23T12:06:34.758Z,7.70
2018-06-23T12:09:02.876Z,4.90
2018-06-23T12:11:30.731Z,4.63
2018-06-23T12:13:58.487Z,5.77
2018-06-23T12:16:26.237Z,4.07
2018-06-23T12:18:53.997Z,8.03
2018-06-23T12:21:21.964Z,3.03
2018-06-23T12:23:49.754Z,5.30
2018-06-23T12:26:17.473Z,7.40
2018-06-23T12:28:45.177Z,5.27
2018-06-23T12:31:12.938Z,5.50
2018-06-23T12:33:40.694Z,6.60
2018-06-23T12:36:08.446Z,5.77
2018-06-23T12:38:36.152Z,5.77
2018-06-23T12:41:03.948Z,7.10
2018-06-23T12:43:31.716Z,4.90
2018-06-23T12:45:59.451Z,4.30
2018-06-23T12:48:27.307Z,7.57
2018-06-23T12:50:55.149Z,3.97
2018-06-23T12:53:22.925Z,5.70
2018-06-23T12:55:50.746Z,5.37
2018-06-23T12:58:18.537Z,5.67
2018-06-23T13:00:46.477Z,3.50
2018-06-23T13:03:14.287Z,5.57
2018-06-23T13:05:42.071Z,4.37
2018-06-23T13:08:09.817Z,4.70
2018-06-23T13:10:37.565Z,4.13
2018-06-23T13:13:05.372Z,4.30
2018-06-23T13:15:33.138Z,6.00
2018-06-23T13:18:00.912Z,5.00
2018-06-23T13:20:28.781Z,5.93
2018-06-23T13:22:56.508Z,4.47
2018-06-23T13:25:24.259Z,5.87
2018-06-23T13:27:52.142Z,4.10
2018-06-23T13:30:19.958Z,4.80
2018-06-23T13:32:47.693Z,4.20
2018-06-23T13:35:15.407Z,3.73
2018-06-23T13:37:43.213Z,3.93
2018-06-23T13:40:10.985Z,3.73
2018-06-23T13:42:38.765Z,3.57
2018-06-23T13:45:06.754Z,4.80
2018-06-23T13:47:34.668Z,4.00
2018-06-23T13:50:02.575Z,5.03
2018-06-23T13:52:30.318Z,4.57
2018-06-23T13:54:58.111Z,5.80
2018-06-23T13:57:25.869Z,4.33
2018-06-23T13:59:53.812Z,4.43
2018-06-23T14:02:21.665Z,3.33
2018-06-23T14:04:49.517Z,3.60
2018-06-23T14:07:17.319Z,5.13
2018-06-23T14:09:45.039Z,6.13
2018-06-23T14:12:12.827Z,4.23
2018-06-23T14:14:40.645Z,4.20
2018-06-23T14:17:08.499Z,5.50
2018-06-23T14:19:36.252Z,5.50
2018-06-23T14:22:04.044Z,3.33
2018-06-23T14:24:31.879Z,4.43
2018-06-23T14:26:59.649Z,5.27
2018-06-23T14:29:27.355Z,4.20
2018-06-23T14:31:55.324Z,4.53
2018-06-23T14:34:22.911Z,5.90
2018-06-23T14:36:51.552Z,6.23
2018-06-23T14:39:19.356Z,5.37
2018-06-23T14:41:47.084Z,6.00
2018-06-23T14:44:14.814Z,6.20
2018-06-23T14:46:42.680Z,3.50
2018-06-23T14:49:10.614Z,4.80
2018-06-23T14:51:38.358Z,5.27
2018-06-23T14:54:06.446Z,4.50
2018-06-23T14:56:34.150Z,5.10
2018-06-23T14:59:01.905Z,5.13
2018-06-23T15:01:29.740Z,4.30
2018-06-23T15:03:57.636Z,4.97
2018-06-23T15:06:25.411Z,4.03
2018-06-23T15:09:04.873Z,3.87
2018-06-23T15:11:44.121Z,4.47
2018-06-23T15:14:11.893Z,3.80
2018-06-23T15:16:39.735Z,3.50
2018-06-23T15:19:12.986Z,3.77
2018-06-23T15:21:40.745Z,3.90
2018-06-23T15:24:08.437Z,5.23
2018-06-23T15:26:36.276Z,4.67
2018-06-23T15:29:04.087Z,4.40
2018-06-23T15:31:31.999Z,3.93
2018-06-23T15:33:59.836Z,5.33
2018-06-23T15:36:27.645Z,4.93
2018-06-23T15:38:55.538Z,3.80
2018-06-23T15:41:23.311Z,4.33
2018-06-23T15:43:51.097Z,4.67
2018-06-23T15:46:18.783Z,6.07
2018-06-23T15:48:47.258Z,3.40
2018-06-23T15:51:15.968Z,4.60
2018-06-23T15:53:43.744Z,4.10
2018-06-23T15:56:11.491Z,4.33
2018-06-23T15:58:39.533Z,3.90
2018-06-23T16:01:07.350Z,6.47
2018-06-23T16:03:35.153Z,4.63
2018-06-23T16:06:02.888Z,6.93
2018-06-23T16:08:30.731Z,4.23
2018-06-23T16:10:58.545Z,4.67
2018-06-23T16:13:26.335Z,4.63
2018-06-23T16:15:54.191Z,4.60
2018-06-23T16:18:21.925Z,4.07
2018-06-23T16:20:49.702Z,7.40
2018-06-23T16:23:17.666Z,6.13
2018-06-23T16:25:45.471Z,4.23
2018-06-23T16:28:13.166Z,7.67
2018-06-23T16:30:40.934Z,4.80
2018-06-23T16:33:08.686Z,5.90
2018-06-23T16:35:36.466Z,4.70
2018-06-23T16:38:04.498Z,6.83
2018-06-23T16:40:32.272Z,5.60
2018-06-23T16:43:00.039Z,7.67
2018-06-23T16:45:28.117Z,6.30
2018-06-23T16:47:55.862Z,5.87
2018-06-23T16:50:23.595Z,6.30
2018-06-23T16:52:51.433Z,5.37
2018-06-23T16:55:19.230Z,6.20
2018-06-23T16:57:46.969Z,5.23
2018-06-23T17:00:18.118Z,5.80
2018-06-23T17:02:45.897Z,20.13
2018-06-23T17:05:13.787Z,8.50
2018-06-23T17:07:41.519Z,8.47
2018-06-23T17:10:09.232Z,7.20
2018-06-23T17:12:37.030Z,6.33
2018-06-23T17:15:04.882Z,7.37
2018-06-23T17:17:32.741Z,6.60
2018-06-23T17:20:00.456Z,8.63
2018-06-23T17:22:28.214Z,6.20
2018-06-23T17:24:56.232Z,6.27
2018-06-23T17:27:24.014Z,5.30
2018-06-23T17:29:51.882Z,5.57
2018-06-23T17:32:19.607Z,9.00
2018-06-23T17:34:48.231Z,6.70
2018-06-23T17:37:16.033Z,5.43
2018-06-23T17:39:43.802Z,5.30
2018-06-23T17:42:11.525Z,6.20
2018-06-23T17:44:39.425Z,5.90
2018-06-23T17:47:07.187Z,6.67
2018-06-23T17:49:34.851Z,8.60
2018-06-23T17:52:02.658Z,6.80
2018-06-23T17:54:30.411Z,6.20
2018-06-23T17:56:58.218Z,7.50
2018-06-23T17:59:25.986Z,6.80
2018-06-23T18:01:53.873Z,7.17
2018-06-23T18:04:21.717Z,5.83
2018-06-23T18:06:49.719Z,4.90
2018-06-23T18:09:17.492Z,5.80
2018-06-23T18:11:45.244Z,6.70
2018-06-23T18:14:12.983Z,6.23
2018-06-23T18:16:40.771Z,5.13
2018-06-23T18:19:08.568Z,5.13
2018-06-23T18:21:36.403Z,6.13
2018-06-23T18:24:04.274Z,6.70
2018-06-23T18:26:32.402Z,9.23
2018-06-23T18:29:00.258Z,8.20
2018-06-23T18:31:27.952Z,7.70
2018-06-23T18:33:55.799Z,5.27
2018-06-23T18:36:23.486Z,4.53
2018-06-23T18:38:51.328Z,7.30
2018-06-23T18:41:19.058Z,10.07
2018-06-23T18:43:46.767Z,7.03
2018-06-23T18:46:14.546Z,6.53
2018-06-23T18:48:42.364Z,5.80
2018-06-23T18:51:10.158Z,5.23
2018-06-23T18:53:37.909Z,9.70
2018-06-23T18:56:05.845Z,7.60
2018-06-23T18:58:33.585Z,8.47
2018-06-23T19:01:01.367Z,6.27
2018-06-23T19:03:29.136Z,7.93
2018-06-23T19:05:57.166Z,7.83
2018-06-23T19:08:25.567Z,10.13
2018-06-23T19:10:53.205Z,7.83
2018-06-23T19:13:21.073Z,6.43
2018-06-23T19:15:48.882Z,7.03
2018-06-23T19:18:16.614Z,10.47
2018-06-23T19:20:44.449Z,8.30
2018-06-23T19:23:12.186Z,11.60
2018-06-23T19:25:39.937Z,11.37
2018-06-23T19:28:07.772Z,7.77
2018-06-23T19:30:35.528Z,6.90
2018-06-23T19:33:03.151Z,9.17
2018-06-23T19:35:30.892Z,6.10
2018-06-23T19:37:59.022Z,7.93
2018-06-23T19:40:26.783Z,7.20
2018-06-23T19:42:54.534Z,6.63
2018-06-23T19:45:22.309Z,7.77
2018-06-23T19:47:50.065Z,5.77
2018-06-23T19:50:17.772Z,7.33
2018-06-23T19:52:45.564Z,10.50
2018-06-23T19:55:13.301Z,6.17
2018-06-23T19:57:41.246Z,10.27
2018-06-23T20:00:09.010Z,8.47
2018-06-23T20:02:36.821Z,7.87
2018-06-23T20:05:04.725Z,6.37
2018-06-23T20:07:33.051Z,6.27
2018-06-23T20:10:00.778Z,8.90
2018-06-23T20:12:28.487Z,8.87
2018-06-23T20:14:56.273Z,6.80
2018-06-23T20:17:24.048Z,10.00
2018-06-23T20:19:51.994Z,7.93
2018-06-23T20:22:19.888Z,7.03
2018-06-23T20:24:47.582Z,6.70
2018-06-23T20:27:15.302Z,7.27
2018-06-23T20:29:43.208Z,8.87
2018-06-23T20:32:10.927Z,8.20
2018-06-23T20:34:38.755Z,13.20
2018-06-23T20:37:06.546Z,9.03
2018-06-23T20:39:34.324Z,8.73
2018-06-23T20:42:02.103Z,10.30
2018-06-23T20:44:30.080Z,9.07
2018-06-23T20:46:57.892Z,9.10
2018-06-23T20:49:25.703Z,7.30
2018-06-23T20:51:53.449Z,10.90
2018-06-23T20:54:21.180Z,8.70
2018-06-23T20:56:49.013Z,6.33
2018-06-23T20:59:16.768Z,7.80
2018-06-23T21:01:44.661Z,10.80
2018-06-23T21:04:12.457Z,12.67
2018-06-23T21:06:40.313Z,10.30
2018-06-23T21:09:09.756Z,14.60
2018-06-23T21:11:37.534Z,12.27
2018-06-23T21:14:05.522Z,15.23
2018-06-23T21:16:33.534Z,11.57
2018-06-23T21:19:01.368Z,11.70
2018-06-23T21:21:29.183Z,10.00
2018-06-23T21:23:57.024Z,10.00
2018-06-23T21:26:24.907Z,12.37
2018-06-23T21:28:52.759Z,12.33
2018-06-23T21:31:20.562Z,10.37
2018-06-23T21:33:48.375Z,11.93
2018-06-23T21:36:16.326Z,10.73
2018-06-23T21:38:44.051Z,11.70
2018-06-23T21:41:11.904Z,9.60
2018-06-23T21:43:39.705Z,10.50
2018-06-23T21:46:07.533Z,11.50
2018-06-23T21:48:35.520Z,9.60
2018-06-23T21:51:03.497Z,13.53
2018-06-23T21:53:31.207Z,19.20
2018-06-23T21:55:59.002Z,10.50
2018-06-23T21:58:27.101Z,13.80
2018-06-23T22:00:54.998Z,11.83
2018-06-23T22:03:22.706Z,11.43
2018-06-23T22:05:50.537Z,12.70
2018-06-23T22:08:18.407Z,15.73
2018-06-23T22:10:46.173Z,13.83
2018-06-23T22:13:13.935Z,14.70
2018-06-23T22:15:41.700Z,9.63
2018-06-23T22:18:09.473Z,10.70
2018-06-23T22:20:37.234Z,12.57
2018-06-23T22:23:05.110Z,14.63
2018-06-23T22:25:32.834Z,11.77
2018-06-23T22:28:00.535Z,11.77
2018-06-23T22:30:28.368Z,9.73
2018-06-23T22:32:56.188Z,13.00
2018-06-23T22:35:24.080Z,14.10
2018-06-23T22:37:51.866Z,13.57
2018-06-23T22:40:19.632Z,10.87
2018-06-23T22:42:47.500Z,8.63
2018-06-23T22:45:15.310Z,10.77
2018-06-23T22:47:43.154Z,10.70
2018-06-23T22:50:10.984Z,10.70
2018-06-23T22:52:38.944Z,10.63
2018-06-23T22:55:07.529Z,9.27
2018-06-23T22:57:35.447Z,10.63
2018-06-23T23:00:06.145Z,18.93
2018-06-23T23:02:33.877Z,26.50
2018-06-23T23:05:01.625Z,12.17
2018-06-23T23:07:31.504Z,9.70
2018-06-23T23:09:59.224Z,10.57
2018-06-23T23:12:26.987Z,8.70
2018-06-23T23:14:54.981Z,11.63
2018-06-23T23:17:22.705Z,9.47
2018-06-23T23:19:50.426Z,9.60
2018-06-23T23:22:18.150Z,9.50
2018-06-23T23:24:45.966Z,11.83
2018-06-23T23:27:13.710Z,13.10
2018-06-23T23:29:41.482Z,12.27
2018-06-23T23:32:09.285Z,11.57
2018-06-23T23:34:37.055Z,9.40
2018-06-23T23:37:05.172Z,10.90
2018-06-23T23:39:32.885Z,12.80
2018-06-23T23:42:00.641Z,11.40
2018-06-23T23:44:28.362Z,14.90
2018-06-23T23:46:56.106Z,10.50
2018-06-23T23:49:23.897Z,11.53
2018-06-23T23:51:51.659Z,13.73
2018-06-23T23:54:19.430Z,10.20
2018-06-23T23:56:47.190Z,12.23
2018-06-23T23:59:14.966Z,16.37
